createdAt,value
2023-02-23T00:00:37.517Z,13.40
2023-02-23T00:03:04.542Z,13.40
2023-02-23T00:05:37.436Z,13.30
2023-02-23T00:08:05.189Z,13.30
2023-02-23T00:10:31.817Z,13.20
2023-02-23T00:12:59.984Z,13.30
2023-02-23T00:15:27.628Z,13.20
2023-02-23T00:17:55.757Z,13.30
2023-02-23T00:20:27.623Z,13.20
2023-02-23T00:22:57.239Z,13.20
2023-02-23T00:25:24.826Z,13.20
2023-02-23T00:27:52.665Z,13.20
2023-02-23T00:30:19.964Z,13.20
2023-02-23T00:32:46.813Z,13.20
2023-02-23T00:35:19.528Z,13.10
2023-02-23T00:37:49.679Z,13.10
2023-02-23T00:40:17.204Z,13.10
2023-02-23T00:42:45.927Z,13.10
2023-02-23T00:45:13.051Z,13.10
2023-02-23T00:47:43.849Z,13.10
2023-02-23T00:50:12.997Z,13.10
2023-02-23T00:52:40.499Z,13.10
2023-02-23T00:55:13.931Z,13.10
2023-02-23T00:57:40.982Z,13.20
2023-02-23T01:00:27.595Z,13.10
2023-02-23T01:02:54.381Z,13.20
2023-02-23T01:05:22.249Z,13.10
2023-02-23T01:07:49.576Z,13.20
2023-02-23T01:10:22.596Z,13.10
2023-02-23T01:12:49.680Z,13.10
2023-02-23T01:15:17.128Z,13.10
2023-02-23T01:17:43.736Z,13.00
2023-02-23T01:20:17.686Z,13.00
2023-02-23T01:22:49.006Z,13.00
2023-02-23T01:25:17.859Z,13.00
2023-02-23T01:27:44.543Z,13.00
2023-02-23T01:30:12.414Z,13.00
2023-02-23T01:32:39.385Z,13.00
2023-02-23T01:35:07.884Z,13.00
2023-02-23T01:37:35.659Z,13.00
2023-02-23T01:40:10.443Z,13.00
2023-02-23T01:42:38.610Z,13.00
2023-02-23T01:45:25.915Z,13.00
2023-02-23T01:47:54.883Z,13.00
2023-02-23T01:50:21.651Z,13.00
2023-02-23T01:52:50.892Z,13.00
2023-02-23T01:55:23.879Z,13.00
2023-02-23T01:57:55.829Z,13.00
2023-02-23T02:00:42.520Z,13.00
2023-02-23T02:03:12.650Z,13.00
2023-02-23T02:05:39.589Z,13.00
2023-02-23T02:08:07.237Z,13.00
2023-02-23T02:10:40.171Z,13.00
2023-02-23T02:13:09.053Z,12.90
2023-02-23T02:15:41.171Z,12.90
2023-02-23T02:18:18.702Z,12.80
2023-02-23T02:21:04.699Z,12.70
2023-02-23T02:23:50.035Z,12.70
2023-02-23T02:26:21.025Z,12.60
2023-02-23T02:29:04.415Z,12.50
2023-02-23T02:31:36.302Z,12.50
2023-02-23T02:34:03.128Z,12.40
2023-02-23T02:36:41.792Z,12.40
2023-02-23T02:39:35.249Z,12.40
2023-02-23T02:42:07.907Z,12.40
2023-02-23T02:44:49.529Z,12.40
2023-02-23T02:47:19.208Z,12.40
2023-02-23T02:50:02.219Z,12.40
2023-02-23T02:52:44.451Z,12.40
2023-02-23T02:55:14.152Z,12.40
2023-02-23T02:57:41.404Z,12.50
2023-02-23T03:00:27.097Z,12.50
2023-02-23T03:03:12.140Z,12.50
2023-02-23T03:06:03.837Z,12.50
2023-02-23T03:09:03.634Z,12.50
2023-02-23T03:11:56.003Z,12.40
2023-02-23T03:14:47.361Z,12.40
2023-02-23T03:17:55.070Z,12.30
2023-02-23T03:21:03.264Z,12.30
2023-02-23T03:23:58.692Z,12.30
2023-02-23T03:26:49.376Z,12.30
2023-02-23T03:29:51.527Z,12.40
2023-02-23T03:32:44.162Z,12.30
2023-02-23T03:35:35.957Z,12.30
2023-02-23T03:38:25.694Z,12.30
2023-02-23T03:41:12.905Z,12.30
2023-02-23T03:44:01.526Z,12.30
2023-02-23T03:46:48.324Z,12.40
2023-02-23T03:49:34.487Z,12.40
2023-02-23T03:52:23.836Z,12.40
2023-02-23T03:55:16.839Z,12.40
2023-02-23T03:58:04.094Z,12.40
2023-02-23T04:00:51.711Z,12.40
2023-02-23T04:03:37.991Z,12.40
2023-02-23T04:06:25.230Z,12.40
2023-02-23T04:09:11.560Z,12.40
2023-02-23T04:12:17.086Z,12.40
2023-02-23T04:15:04.014Z,12.40
2023-02-23T04:17:31.141Z,12.40
2023-02-23T04:19:57.753Z,12.40
2023-02-23T04:22:24.394Z,12.40
2023-02-23T04:24:51.163Z,12.40
2023-02-23T04:27:18.108Z,12.40
2023-02-23T04:29:45.215Z,12.50
2023-02-23T04:32:17.071Z,12.50
2023-02-23T04:34:44.228Z,12.50
2023-02-23T04:37:11.149Z,12.50
2023-02-23T04:39:37.826Z,12.60
2023-02-23T04:42:04.772Z,12.60
2023-02-23T04:44:31.384Z,12.60
2023-02-23T04:46:58.040Z,12.60
2023-02-23T04:49:24.717Z,12.60
2023-02-23T04:51:51.340Z,12.60
2023-02-23T04:54:18.368Z,12.60
2023-02-23T04:56:44.966Z,12.60
2023-02-23T04:59:11.606Z,12.60
2023-02-23T05:01:38.425Z,12.60
2023-02-23T05:04:05.089Z,12.60
2023-02-23T05:06:31.808Z,12.60
2023-02-23T05:08:58.475Z,12.60
2023-02-23T05:11:26.642Z,12.60
2023-02-23T05:13:54.635Z,12.60
2023-02-23T05:16:22.112Z,12.60
2023-02-23T05:18:48.777Z,12.60
2023-02-23T05:21:15.445Z,12.60
2023-02-23T05:23:42.168Z,12.60
2023-02-23T05:26:09.996Z,12.60
2023-02-23T05:28:37.295Z,12.60
2023-02-23T05:31:04.601Z,12.60
2023-02-23T05:33:35.409Z,12.60
2023-02-23T05:36:05.074Z,12.60
2023-02-23T05:38:31.742Z,12.60
2023-02-23T05:40:58.360Z,12.60
2023-02-23T05:43:25.018Z,12.60
2023-02-23T05:45:51.723Z,12.60
2023-02-23T05:48:18.346Z,12.60
2023-02-23T05:50:45.226Z,12.60
2023-02-23T05:53:11.887Z,12.60
2023-02-23T05:55:38.586Z,12.60
2023-02-23T05:58:05.236Z,12.60
2023-02-23T06:00:31.878Z,12.60
2023-02-23T06:02:58.507Z,12.60
2023-02-23T06:05:25.188Z,12.60
2023-02-23T06:07:51.831Z,12.60
2023-02-23T06:10:18.512Z,12.60
2023-02-23T06:12:45.212Z,12.60
2023-02-23T06:15:11.918Z,12.60
2023-02-23T06:17:38.556Z,12.60
2023-02-23T06:20:07.139Z,12.60
2023-02-23T06:22:33.824Z,12.60
2023-02-23T06:25:00.425Z,12.50
2023-02-23T06:27:28.195Z,12.60
2023-02-23T06:29:54.849Z,12.60
2023-02-23T06:32:21.771Z,12.60
2023-02-23T06:34:48.402Z,12.60
2023-02-23T06:37:17.048Z,12.60
2023-02-23T06:39:44.806Z,12.60
2023-02-23T06:42:11.423Z,12.50
2023-02-23T06:44:38.155Z,12.50
2023-02-23T06:47:06.184Z,12.50
2023-02-23T06:49:33.113Z,12.50
2023-02-23T06:52:03.018Z,12.50
2023-02-23T06:54:29.627Z,12.50
2023-02-23T06:56:56.795Z,12.50
2023-02-23T06:59:24.277Z,12.50
2023-02-23T07:01:50.981Z,12.60
2023-02-23T07:04:17.896Z,12.50
2023-02-23T07:06:44.537Z,12.50
2023-02-23T07:09:11.152Z,12.50
2023-02-23T07:11:37.825Z,12.60
2023-02-23T07:14:04.453Z,12.50
2023-02-23T07:16:31.113Z,12.50
2023-02-23T07:19:07.254Z,12.60
2023-02-23T07:21:34.178Z,12.60
2023-02-23T07:24:01.238Z,12.60
2023-02-23T07:26:27.833Z,12.60
2023-02-23T07:28:54.552Z,12.60
2023-02-23T07:31:21.586Z,12.60
2023-02-23T07:33:49.407Z,12.60
2023-02-23T07:36:16.116Z,12.50
2023-02-23T07:38:42.787Z,12.50
2023-02-23T07:41:09.717Z,12.50
2023-02-23T07:43:36.336Z,12.50
2023-02-23T07:46:03.109Z,12.60
2023-02-23T07:48:30.109Z,12.50
2023-02-23T07:50:56.732Z,12.50
2023-02-23T07:53:24.495Z,12.50
2023-02-23T07:55:57.836Z,12.50
2023-02-23T07:58:24.469Z,12.50
2023-02-23T08:00:51.152Z,12.50
2023-02-23T08:03:17.856Z,12.50
2023-02-23T08:05:44.953Z,12.50
2023-02-23T08:08:12.018Z,12.60
2023-02-23T08:10:40.039Z,12.50
2023-02-23T08:13:06.729Z,12.60
2023-02-23T08:15:36.438Z,12.60
2023-02-23T08:18:03.059Z,12.60
2023-02-23T08:20:30.092Z,12.60
2023-02-23T08:22:57.206Z,12.60
2023-02-23T08:25:24.417Z,12.60
2023-02-23T08:27:54.553Z,12.60
2023-02-23T08:30:21.846Z,12.60
2023-02-23T08:32:48.659Z,12.60
2023-02-23T08:35:15.457Z,12.60
2023-02-23T08:37:42.106Z,12.60
2023-02-23T08:40:09.375Z,12.60
2023-02-23T08:42:36.033Z,12.60
2023-02-23T08:45:02.735Z,12.60
2023-02-23T08:47:29.996Z,12.60
2023-02-23T08:49:56.716Z,12.60
2023-02-23T08:52:24.130Z,12.70
2023-02-23T08:54:50.801Z,12.60
2023-02-23T08:57:18.316Z,12.70
2023-02-23T08:59:45.053Z,12.70
2023-02-23T09:02:12.835Z,12.70
2023-02-23T09:04:41.871Z,12.60
2023-02-23T09:07:10.412Z,12.70
2023-02-23T09:10:08.003Z,12.70
2023-02-23T09:12:34.814Z,12.70
2023-02-23T09:15:02.340Z,12.60
2023-02-23T09:17:29.026Z,12.70
2023-02-23T09:19:55.731Z,12.70
2023-02-23T09:22:22.343Z,12.70
2023-02-23T09:24:49.316Z,12.70
2023-02-23T09:27:16.202Z,12.70
2023-02-23T09:29:43.419Z,12.80
2023-02-23T09:32:11.016Z,12.80
2023-02-23T09:34:37.888Z,12.80
2023-02-23T09:37:04.962Z,12.80
2023-02-23T09:39:37.997Z,12.80
2023-02-23T09:42:08.480Z,12.80
2023-02-23T09:44:42.173Z,12.80
2023-02-23T09:47:14.088Z,12.80
2023-02-23T09:49:42.362Z,12.80
2023-02-23T09:52:12.914Z,12.80
2023-02-23T09:54:39.704Z,12.80
2023-02-23T09:57:10.979Z,12.80
2023-02-23T09:59:39.321Z,12.80
2023-02-23T10:02:06.451Z,12.80
2023-02-23T10:04:47.927Z,12.90
2023-02-23T10:07:21.095Z,12.90
2023-02-23T10:09:54.722Z,12.90
2023-02-23T10:12:40.116Z,12.90
2023-02-23T10:15:14.201Z,12.90
2023-02-23T10:17:46.963Z,12.90
2023-02-23T10:20:19.093Z,13.00
2023-02-23T10:22:48.180Z,13.00
2023-02-23T10:25:17.952Z,13.00
2023-02-23T10:27:46.647Z,13.10
2023-02-23T10:30:19.075Z,13.20
2023-02-23T10:32:57.673Z,13.20
2023-02-23T10:35:24.734Z,13.30
2023-02-23T10:37:52.880Z,13.30
2023-02-23T10:40:22.144Z,13.30
2023-02-23T10:42:49.490Z,13.30
2023-02-23T10:45:22.736Z,13.40
2023-02-23T10:47:52.803Z,13.30
2023-02-23T10:50:19.961Z,13.30
2023-02-23T10:52:47.519Z,13.30
2023-02-23T10:55:27.914Z,13.30
2023-02-23T10:58:17.877Z,13.30
2023-02-23T11:00:55.770Z,13.30
2023-02-23T11:03:42.988Z,13.30
2023-02-23T11:06:29.513Z,13.40
2023-02-23T11:08:56.734Z,13.30
2023-02-23T11:11:28.986Z,13.40
2023-02-23T11:13:57.181Z,13.40
2023-02-23T11:16:30.109Z,13.30
2023-02-23T11:18:58.268Z,13.30
2023-02-23T11:21:37.436Z,13.30
2023-02-23T11:24:15.628Z,13.40
2023-02-23T11:26:43.205Z,13.40
2023-02-23T11:29:29.796Z,13.40
2023-02-23T11:31:58.135Z,13.50
2023-02-23T11:34:29.536Z,13.40
2023-02-23T11:37:06.578Z,13.40
2023-02-23T11:39:33.881Z,13.40
2023-02-23T11:42:09.534Z,13.50
2023-02-23T11:44:39.212Z,13.50
2023-02-23T11:47:06.118Z,13.50
2023-02-23T11:49:35.870Z,13.50
2023-02-23T11:52:02.918Z,13.50
2023-02-23T11:54:30.841Z,13.50
2023-02-23T11:56:58.179Z,13.50
2023-02-23T11:59:32.713Z,13.50
2023-02-23T12:02:05.294Z,13.50
2023-02-23T12:04:37.192Z,13.50
2023-02-23T12:07:22.560Z,13.50
2023-02-23T12:09:52.799Z,13.50
2023-02-23T12:12:21.800Z,13.50
2023-02-23T12:14:52.080Z,13.50
2023-02-23T12:17:23.050Z,13.50
2023-02-23T12:19:54.428Z,13.50
2023-02-23T12:22:23.925Z,13.50
2023-02-23T12:24:54.394Z,13.50
2023-02-23T12:27:31.267Z,13.60
2023-02-23T12:30:09.088Z,13.60
2023-02-23T12:32:46.231Z,13.60
2023-02-23T12:35:19.705Z,13.60
2023-02-23T12:38:06.421Z,13.60
2023-02-23T12:40:35.347Z,13.60
2023-02-23T12:43:05.118Z,13.60
2023-02-23T12:45:31.731Z,13.60
2023-02-23T12:48:15.017Z,13.60
2023-02-23T12:50:45.730Z,13.60
2023-02-23T12:53:12.496Z,13.60
2023-02-23T12:55:48.490Z,13.60
2023-02-23T12:58:29.253Z,13.60
2023-02-23T13:01:01.146Z,13.60
2023-02-23T13:03:33.410Z,13.70
2023-02-23T13:06:09.307Z,13.60
2023-02-23T13:09:02.921Z,13.70
2023-02-23T13:11:48.420Z,13.70
2023-02-23T13:14:34.894Z,13.70
2023-02-23T13:17:05.746Z,13.70
2023-02-23T13:19:38.255Z,13.70
2023-02-23T13:22:07.695Z,13.70
2023-02-23T13:24:40.855Z,13.60
2023-02-23T13:27:16.329Z,13.70
2023-02-23T13:29:48.944Z,13.60
2023-02-23T13:32:21.366Z,13.60
2023-02-23T13:34:52.478Z,13.60
2023-02-23T13:37:20.854Z,13.50
2023-02-23T13:40:02.143Z,13.50
2023-02-23T13:42:28.811Z,13.50
2023-02-23T13:45:01.861Z,13.40
2023-02-23T13:47:38.587Z,13.50
2023-02-23T13:50:25.736Z,13.40
2023-02-23T13:53:01.179Z,13.40
2023-02-23T13:55:32.622Z,13.40
2023-02-23T13:58:15.309Z,13.40
2023-02-23T14:00:43.719Z,13.30
2023-02-23T14:03:21.417Z,13.30
2023-02-23T14:05:52.537Z,13.20
2023-02-23T14:08:33.826Z,13.20
2023-02-23T14:11:00.690Z,13.20
2023-02-23T14:13:30.320Z,13.20
2023-02-23T14:16:11.377Z,13.20
2023-02-23T14:18:54.404Z,13.10
2023-02-23T14:21:33.317Z,13.10
2023-02-23T14:24:06.157Z,13.10
2023-02-23T14:26:37.663Z,13.10
2023-02-23T14:29:10.099Z,13.10
2023-02-23T14:31:38.527Z,13.00
2023-02-23T14:34:09.327Z,13.00
2023-02-23T14:36:43.234Z,13.00
2023-02-23T14:39:12.879Z,13.00
2023-02-23T14:41:43.096Z,13.00
2023-02-23T14:44:28.989Z,13.00
2023-02-23T14:47:15.781Z,13.00
2023-02-23T14:49:44.796Z,13.00
2023-02-23T14:52:19.796Z,13.00
2023-02-23T14:54:47.004Z,13.00
2023-02-23T14:57:17.922Z,13.00
2023-02-23T14:59:46.897Z,13.00
2023-02-23T15:02:19.087Z,13.00
2023-02-23T15:04:46.905Z,13.00
2023-02-23T15:07:18.761Z,13.00
2023-02-23T15:09:46.656Z,12.90
2023-02-23T15:12:18.720Z,12.90
2023-02-23T15:14:46.349Z,12.90
2023-02-23T15:17:17.944Z,12.90
2023-02-23T15:19:45.152Z,12.90
2023-02-23T15:22:18.184Z,13.00
2023-02-23T15:24:47.550Z,12.90
2023-02-23T15:27:16.444Z,12.90
2023-02-23T15:29:43.085Z,12.90
2023-02-23T15:32:17.752Z,12.90
2023-02-23T15:34:44.895Z,12.90
2023-02-23T15:37:30.554Z,12.90
2023-02-23T15:39:59.450Z,12.90
2023-02-23T15:42:31.165Z,12.90
2023-02-23T15:44:59.884Z,12.80
2023-02-23T15:47:29.629Z,12.80
2023-02-23T15:50:20.102Z,12.80
2023-02-23T15:52:57.380Z,12.80
2023-02-23T15:55:25.735Z,12.80
2023-02-23T15:57:53.895Z,12.80
2023-02-23T16:00:32.403Z,12.80
2023-02-23T16:03:04.217Z,12.80
2023-02-23T16:05:46.648Z,12.80
2023-02-23T16:08:23.906Z,12.80
2023-02-23T16:10:53.255Z,12.70
2023-02-23T16:13:22.172Z,12.80
2023-02-23T16:16:11.704Z,12.90
2023-02-23T16:18:40.609Z,12.90
2023-02-23T16:21:07.548Z,12.90
2023-02-23T16:23:40.369Z,12.90
2023-02-23T16:26:12.447Z,12.90
2023-02-23T16:28:43.611Z,12.80
2023-02-23T16:31:13.393Z,12.80
2023-02-23T16:33:44.450Z,12.80
2023-02-23T16:36:11.186Z,12.80
2023-02-23T16:38:39.373Z,12.80
2023-02-23T16:41:06.606Z,12.80
2023-02-23T16:43:35.003Z,12.70
2023-02-23T16:46:03.106Z,12.70
2023-02-23T16:48:30.483Z,12.70
2023-02-23T16:50:57.627Z,12.70
2023-02-23T16:53:24.328Z,12.70
2023-02-23T16:55:52.416Z,12.70
2023-02-23T16:58:23.414Z,12.70
2023-02-23T17:00:51.117Z,12.70
2023-02-23T17:03:27.818Z,12.70
2023-02-23T17:05:54.712Z,12.60
2023-02-23T17:08:21.944Z,12.60
2023-02-23T17:10:50.156Z,12.70
2023-02-23T17:13:24.058Z,12.60
2023-02-23T17:15:54.007Z,12.60
2023-02-23T17:21:12.076Z,12.60
2023-02-23T17:23:48.208Z,12.60
2023-02-23T17:27:12.047Z,12.60
2023-02-23T17:29:38.842Z,12.60
2023-02-23T17:32:06.082Z,12.60
2023-02-23T17:34:33.099Z,12.60
2023-02-23T17:36:59.834Z,12.60
2023-02-23T17:39:28.234Z,12.60
2023-02-23T17:41:55.754Z,12.60
2023-02-23T17:44:22.945Z,12.60
2023-02-23T17:46:49.912Z,12.60
2023-02-23T17:49:16.903Z,12.60
2023-02-23T17:51:43.692Z,12.60
2023-02-23T17:54:10.528Z,12.60
2023-02-23T17:56:37.584Z,12.50
2023-02-23T17:59:04.608Z,12.60
2023-02-23T18:01:31.545Z,12.60
2023-02-23T18:03:59.356Z,12.60
2023-02-23T18:06:26.400Z,12.60
2023-02-23T18:08:53.172Z,12.60
2023-02-23T18:11:20.331Z,12.50
2023-02-23T18:13:48.281Z,12.50
2023-02-23T18:16:16.133Z,12.50
2023-02-23T18:18:46.116Z,12.50
2023-02-23T18:21:16.900Z,12.50
2023-02-23T18:23:43.901Z,12.50
2023-02-23T18:26:14.202Z,12.50
2023-02-23T18:28:44.381Z,12.50
2023-02-23T18:31:17.963Z,12.50
2023-02-23T18:33:45.080Z,12.40
2023-02-23T18:36:22.966Z,12.50
2023-02-23T18:41:35.995Z,12.40
2023-02-23T18:44:05.424Z,12.40
2023-02-23T18:46:32.905Z,12.40
2023-02-23T18:49:01.205Z,12.40
2023-02-23T18:51:28.052Z,12.40
2023-02-23T18:53:55.236Z,12.40
2023-02-23T18:56:25.204Z,12.40
2023-02-23T18:58:58.097Z,12.40
2023-02-23T19:01:30.807Z,12.40
2023-02-23T19:04:00.040Z,12.40
2023-02-23T19:06:27.777Z,12.40
2023-02-23T19:08:57.381Z,12.30
2023-02-23T19:11:29.691Z,12.30
2023-02-23T19:14:02.073Z,12.30
2023-02-23T19:16:32.528Z,12.30
2023-02-23T19:19:00.355Z,12.30
2023-02-23T19:21:27.779Z,12.30
2023-02-23T19:23:57.708Z,12.30
2023-02-23T19:26:26.034Z,12.30
2023-02-23T19:28:53.466Z,12.20
2023-02-23T19:31:22.569Z,12.30
2023-02-23T19:33:50.537Z,12.20
2023-02-23T19:36:20.267Z,12.20
2023-02-23T19:38:47.375Z,12.20
2023-02-23T19:41:17.301Z,12.20
2023-02-23T19:43:44.057Z,12.10
2023-02-23T19:46:13.900Z,12.10
2023-02-23T19:48:40.905Z,12.10
2023-02-23T19:51:11.910Z,12.10
2023-02-23T19:53:39.289Z,12.10
2023-02-23T19:56:10.145Z,12.10
2023-02-23T19:58:37.169Z,12.10
2023-02-23T20:01:08.721Z,12.10
2023-02-23T20:03:39.504Z,12.10
2023-02-23T20:06:07.471Z,12.10
2023-02-23T20:08:34.626Z,12.10
2023-02-23T20:11:05.557Z,12.10
2023-02-23T20:13:32.520Z,12.00
2023-02-23T20:16:06.331Z,12.00
2023-02-23T20:18:35.747Z,12.10
2023-02-23T20:21:21.512Z,12.10
2023-02-23T20:23:48.586Z,12.00
2023-02-23T20:26:20.952Z,12.00
2023-02-23T20:28:50.130Z,12.00
2023-02-23T20:31:21.833Z,12.00
2023-02-23T20:33:51.778Z,12.00
2023-02-23T20:36:20.830Z,12.00
2023-02-23T20:38:47.688Z,12.00
2023-02-23T20:41:14.521Z,12.00
2023-02-23T20:43:41.297Z,12.00
2023-02-23T20:46:08.696Z,12.00
2023-02-23T20:48:35.927Z,12.00
2023-02-23T20:51:03.624Z,12.00
2023-02-23T20:53:30.631Z,12.00
2023-02-23T20:55:58.919Z,12.00
2023-02-23T20:58:26.312Z,12.00
2023-02-23T21:00:57.238Z,11.90
2023-02-23T21:03:25.249Z,11.90
2023-02-23T21:05:53.036Z,11.90
2023-02-23T21:08:21.714Z,11.90
2023-02-23T21:10:50.226Z,11.90
2023-02-23T21:13:18.068Z,11.90
2023-02-23T21:15:58.706Z,11.90
2023-02-23T21:18:25.604Z,11.90
2023-02-23T21:20:52.284Z,11.90
2023-02-23T21:23:21.518Z,11.90
2023-02-23T21:25:49.025Z,11.90
2023-02-23T21:28:15.991Z,11.80
2023-02-23T21:30:42.782Z,11.80
2023-02-23T21:33:09.692Z,11.80
2023-02-23T21:35:38.388Z,11.90
2023-02-23T21:38:05.214Z,11.80
2023-02-23T21:40:33.356Z,11.80
2023-02-23T21:43:01.449Z,11.80
2023-02-23T21:45:28.515Z,11.80
2023-02-23T21:47:57.694Z,11.80
2023-02-23T21:50:25.028Z,11.80
2023-02-23T21:52:54.144Z,11.80
2023-02-23T21:55:22.087Z,11.80
2023-02-23T21:57:50.279Z,11.80
2023-02-23T22:00:19.115Z,11.80
2023-02-23T22:02:46.836Z,11.80
2023-02-23T22:05:15.565Z,11.80
2023-02-23T22:07:47.276Z,11.80
2023-02-23T22:10:27.394Z,11.80
2023-02-23T22:12:56.259Z,11.70
2023-02-23T22:15:27.784Z,11.80
2023-02-23T22:17:55.807Z,11.70
2023-02-23T22:20:22.841Z,11.70
2023-02-23T22:22:52.729Z,11.70
2023-02-23T22:25:20.301Z,11.70
2023-02-23T22:27:47.920Z,11.70
2023-02-23T22:30:15.612Z,11.70
2023-02-23T22:32:43.420Z,11.70
2023-02-23T22:35:10.950Z,11.70
2023-02-23T22:37:38.761Z,11.70
2023-02-23T22:40:12.350Z,11.70
2023-02-23T22:42:39.110Z,11.70
2023-02-23T22:45:06.205Z,11.70
2023-02-23T22:47:35.004Z,11.70
2023-02-23T22:50:01.799Z,11.70
2023-02-23T22:52:29.894Z,11.70
2023-02-23T22:54:56.714Z,11.70
2023-02-23T22:57:23.533Z,11.70
2023-02-23T23:00:00.118Z,11.70
2023-02-23T23:02:32.095Z,11.60
2023-02-23T23:04:59.845Z,11.70
2023-02-23T23:07:26.521Z,11.60
2023-02-23T23:09:53.726Z,11.60
2023-02-23T23:12:21.225Z,11.60
2023-02-23T23:14:47.904Z,11.60
2023-02-23T23:17:15.269Z,11.60
2023-02-23T23:19:42.056Z,11.60
2023-02-23T23:22:14.534Z,11.50
2023-02-23T23:24:46.133Z,11.50
2023-02-23T23:27:14.667Z,11.50
2023-02-23T23:29:46.536Z,11.50
2023-02-23T23:32:17.290Z,11.50
2023-02-23T23:34:49.026Z,11.50
2023-02-23T23:37:17.236Z,11.40
2023-02-23T23:39:44.207Z,11.40
2023-02-23T23:42:11.217Z,11.40
2023-02-23T23:44:37.895Z,11.40
2023-02-23T23:47:05.281Z,11.40
2023-02-23T23:49:38.744Z,11.40
2023-02-23T23:52:07.292Z,11.40
2023-02-23T23:54:42.891Z,11.40
2023-02-23T23:57:11.524Z,11.40
2023-02-23T23:59:45.996Z,11.40
